createdAt,value
2022-08-05T00:01:36.316Z,3.60
2022-08-05T00:04:17.512Z,4.15
2022-08-05T00:06:47.046Z,5.03
2022-08-05T00:09:19.551Z,3.92
2022-08-05T00:11:55.752Z,4.72
2022-08-05T00:14:27.658Z,4.13
2022-08-05T00:16:58.106Z,3.53
2022-08-05T00:19:32.871Z,3.50
2022-08-05T00:22:11.306Z,3.65
2022-08-05T00:24:42.394Z,4.25
2022-08-05T00:27:28.552Z,2.85
2022-08-05T00:30:03.448Z,3.90
2022-08-05T00:32:31.960Z,3.60
2022-08-05T00:35:07.559Z,3.40
2022-08-05T00:37:53.414Z,3.80
2022-08-05T00:40:26.766Z,3.78
2022-08-05T00:43:00.391Z,4.53
2022-08-05T00:45:38.587Z,3.13
2022-08-05T00:48:13.026Z,5.30
2022-08-05T00:50:44.375Z,4.05
2022-08-05T00:54:00.330Z,3.47
2022-08-05T00:56:05.542Z,3.22
2022-08-05T00:58:38.091Z,4.03
2022-08-05T01:01:09.069Z,3.30
2022-08-05T01:03:38.607Z,4.40
2022-08-05T01:06:14.145Z,3.50
2022-08-05T01:08:44.666Z,3.45
2022-08-05T01:11:22.718Z,5.13
2022-08-05T01:14:03.810Z,4.50
2022-08-05T01:16:44.460Z,4.30
2022-08-05T01:19:46.308Z,3.65
2022-08-05T01:22:41.593Z,5.03
2022-08-05T01:25:39.632Z,3.33
2022-08-05T01:28:30.546Z,3.55
2022-08-05T01:31:03.426Z,3.30
2022-08-05T01:33:35.965Z,4.35
2022-08-05T01:36:12.950Z,4.25
2022-08-05T01:38:43.431Z,3.40
2022-08-05T01:41:16.518Z,4.38
2022-08-05T01:43:53.703Z,3.60
2022-08-05T01:46:42.280Z,3.50
2022-08-05T01:49:22.924Z,5.55
2022-08-05T01:52:17.437Z,3.60
2022-08-05T01:54:59.015Z,3.70
2022-08-05T01:58:18.941Z,4.22
2022-08-05T02:00:29.881Z,4.03
2022-08-05T02:03:07.663Z,3.63
2022-08-05T02:05:59.686Z,4.78
2022-08-05T02:08:30.760Z,4.38
2022-08-05T02:11:06.047Z,4.55
2022-08-05T02:13:53.062Z,5.18
2022-08-05T02:16:28.087Z,4.47
2022-08-05T02:21:29.214Z,4.88
2022-08-05T02:24:10.231Z,5.22
2022-08-05T02:26:54.717Z,8.32
2022-08-05T02:29:58.226Z,6.93
2022-08-05T02:32:23.758Z,5.88
2022-08-05T02:34:55.295Z,6.30
2022-08-05T02:37:25.284Z,5.95
2022-08-05T02:39:55.004Z,6.22
2022-08-05T02:42:26.140Z,6.40
2022-08-05T02:44:58.749Z,5.25
2022-08-05T02:48:06.970Z,5.38
2022-08-05T02:50:19.065Z,6.50
2022-08-05T02:52:48.313Z,6.57
2022-08-05T02:55:17.678Z,5.78
2022-08-05T02:58:19.949Z,6.45
2022-08-05T03:00:49.928Z,6.25
2022-08-05T03:03:20.907Z,6.85
2022-08-05T03:06:53.879Z,5.75
2022-08-05T03:08:43.181Z,5.50
2022-08-05T03:11:54.843Z,4.85
2022-08-05T03:14:08.049Z,4.93
2022-08-05T03:16:36.770Z,5.70
2022-08-05T03:19:12.756Z,6.35
2022-08-05T03:21:48.837Z,5.68
2022-08-05T03:24:27.562Z,5.60
2022-08-05T03:26:58.431Z,5.82
2022-08-05T03:29:44.785Z,5.65
2022-08-05T03:32:16.261Z,6.85
2022-08-05T03:34:51.366Z,5.55
2022-08-05T03:37:20.912Z,6.00
2022-08-05T03:40:11.750Z,5.28
2022-08-05T03:42:51.511Z,6.40
2022-08-05T03:45:23.335Z,4.90
2022-08-05T03:47:56.853Z,5.25
2022-08-05T03:50:30.194Z,5.50
2022-08-05T03:55:51.304Z,5.10
2022-08-05T03:56:12.225Z,6.90
2022-08-05T03:58:48.041Z,8.52
2022-08-05T04:01:22.050Z,8.38
2022-08-05T04:04:09.211Z,6.72
2022-08-05T04:06:47.433Z,11.15
2022-08-05T04:09:25.946Z,7.90
2022-08-05T04:11:56.381Z,8.77
2022-08-05T04:14:30.074Z,6.78
2022-08-05T04:17:00.926Z,7.10
2022-08-05T04:19:31.459Z,6.47
2022-08-05T04:22:08.863Z,6.32
2022-08-05T04:24:43.920Z,7.50
2022-08-05T04:27:20.216Z,9.65
2022-08-05T04:30:03.752Z,8.90
2022-08-05T04:32:33.392Z,8.18
2022-08-05T04:35:03.765Z,8.10
2022-08-05T04:38:01.278Z,8.35
2022-08-05T04:40:23.113Z,10.50
2022-08-05T04:42:51.459Z,9.75
2022-08-05T04:45:31.188Z,13.05
2022-08-05T04:48:18.375Z,10.05
2022-08-05T04:51:03.021Z,9.50
2022-08-05T04:53:35.424Z,10.65
2022-08-05T04:56:32.958Z,10.88
2022-08-05T04:58:52.678Z,11.00
2022-08-05T05:02:05.564Z,9.95
2022-08-05T05:04:09.476Z,9.77
2022-08-05T05:06:44.828Z,9.52
2022-08-05T05:09:18.916Z,12.68
2022-08-05T05:11:53.176Z,10.75
2022-08-05T05:14:27.928Z,11.00
2022-08-05T05:17:00.656Z,13.45
2022-08-05T05:19:36.631Z,13.23
2022-08-05T05:22:22.847Z,14.32
2022-08-05T05:24:57.874Z,14.15
2022-08-05T05:27:44.415Z,17.25
2022-08-05T05:30:15.419Z,16.00
2022-08-05T05:32:57.325Z,15.60
2022-08-05T05:35:34.111Z,13.73
2022-08-05T05:38:13.172Z,14.20
2022-08-05T05:40:49.432Z,16.75
2022-08-05T05:43:27.940Z,13.73
2022-08-05T05:46:15.697Z,13.35
2022-08-05T05:48:44.846Z,12.57
2022-08-05T05:51:20.107Z,12.73
2022-08-05T05:53:57.540Z,13.32
2022-08-05T05:56:32.240Z,11.57
2022-08-05T05:59:03.164Z,12.75
2022-08-05T06:01:36.986Z,12.63
2022-08-05T06:06:36.429Z,12.90
2022-08-05T06:09:07.714Z,14.25
2022-08-05T06:11:39.361Z,12.68
2022-08-05T06:14:08.063Z,11.80
2022-08-05T06:16:37.276Z,13.50
2022-08-05T06:19:07.348Z,13.82
2022-08-05T06:21:38.428Z,18.65
2022-08-05T06:24:12.101Z,16.08
2022-08-05T06:26:51.530Z,17.35
2022-08-05T06:29:45.330Z,20.42
2022-08-05T06:32:26.281Z,21.52
2022-08-05T06:34:58.654Z,21.17
2022-08-05T06:37:56.301Z,21.42
2022-08-05T06:40:17.892Z,20.50
2022-08-05T06:42:51.552Z,26.17
2022-08-05T06:46:02.915Z,25.42
2022-08-05T06:48:47.060Z,26.08
2022-08-05T06:51:00.255Z,28.45
2022-08-05T06:53:29.410Z,27.63
2022-08-05T06:55:59.364Z,30.95
2022-08-05T06:58:36.498Z,35.13
2022-08-05T07:01:07.078Z,27.63
2022-08-05T07:03:35.879Z,25.15
2022-08-05T07:06:06.076Z,22.23
2022-08-05T07:08:47.913Z,17.00
2022-08-05T07:11:22.227Z,16.42
2022-08-05T07:14:20.037Z,17.35
2022-08-05T07:17:58.676Z,12.27
2022-08-05T07:20:32.485Z,12.75
2022-08-05T07:22:38.938Z,11.77
2022-08-05T07:25:22.509Z,14.70
2022-08-05T07:28:05.328Z,18.08
2022-08-05T07:30:40.305Z,15.35
2022-08-05T07:33:15.520Z,18.05
2022-08-05T07:36:02.190Z,20.00
2022-08-05T07:38:35.657Z,20.00
2022-08-05T07:42:06.863Z,21.52
2022-08-05T07:44:06.068Z,26.88
2022-08-05T07:46:45.943Z,21.67
2022-08-05T07:49:18.014Z,23.70
2022-08-05T07:51:53.441Z,21.48
2022-08-05T07:54:31.619Z,19.17
2022-08-05T07:57:17.860Z,19.38
2022-08-05T07:59:51.361Z,17.70
2022-08-05T08:02:26.571Z,16.08
2022-08-05T08:04:56.077Z,14.25
2022-08-05T08:07:24.756Z,14.52
2022-08-05T08:09:56.992Z,11.95
2022-08-05T08:12:35.549Z,10.68
2022-08-05T08:15:15.605Z,9.68
2022-08-05T08:17:50.734Z,9.63
2022-08-05T08:21:00.144Z,8.57
2022-08-05T08:24:02.215Z,9.52
2022-08-05T08:26:02.646Z,7.72
2022-08-05T08:28:36.849Z,10.40
2022-08-05T08:31:17.333Z,7.20
2022-08-05T08:33:51.775Z,8.23
2022-08-05T08:36:38.197Z,10.18
2022-08-05T08:39:15.463Z,8.63
2022-08-05T08:45:18.857Z,7.55
2022-08-05T08:47:47.699Z,10.00
2022-08-05T08:50:31.102Z,7.95
2022-08-05T08:52:57.626Z,6.82
2022-08-05T08:55:32.134Z,7.18
2022-08-05T08:58:17.460Z,7.47
2022-08-05T09:00:46.858Z,6.35
2022-08-05T09:03:19.161Z,6.60
2022-08-05T09:06:09.132Z,7.10
2022-08-05T09:08:40.515Z,6.53
2022-08-05T09:11:12.172Z,5.93
2022-08-05T09:14:09.214Z,5.47
2022-08-05T09:16:31.290Z,7.78
2022-08-05T09:18:59.760Z,5.90
2022-08-05T09:22:21.772Z,4.95
2022-08-05T09:24:18.169Z,7.93
2022-08-05T09:26:48.605Z,6.18
2022-08-05T09:29:20.871Z,6.15
2022-08-05T09:32:45.964Z,5.53
2022-08-05T09:34:54.955Z,5.57
2022-08-05T09:38:17.209Z,5.10
2022-08-05T09:40:32.121Z,6.25
2022-08-05T09:43:02.064Z,5.40
2022-08-05T09:46:06.671Z,5.88
2022-08-05T09:48:30.310Z,6.57
2022-08-05T09:51:01.801Z,5.72
2022-08-05T09:53:54.431Z,7.30
2022-08-05T09:56:27.386Z,5.35
2022-08-05T09:59:00.509Z,7.05
2022-08-05T10:01:32.395Z,5.70
2022-08-05T10:04:04.556Z,6.13
2022-08-05T10:06:41.480Z,5.20
2022-08-05T10:09:28.325Z,4.87
2022-08-05T10:12:30.251Z,6.70
2022-08-05T10:15:20.404Z,5.57
2022-08-05T10:18:14.036Z,6.05
2022-08-05T10:20:47.913Z,7.00
2022-08-05T10:23:34.442Z,6.13
2022-08-05T10:26:14.368Z,6.22
2022-08-05T10:28:44.108Z,6.90
2022-08-05T10:32:50.500Z,8.00
2022-08-05T10:34:03.338Z,6.70
2022-08-05T10:36:32.101Z,7.00
2022-08-05T10:39:11.741Z,7.25
2022-08-05T10:41:56.802Z,8.85
2022-08-05T10:44:31.865Z,8.10
2022-08-05T10:47:26.487Z,8.93
2022-08-05T10:50:32.838Z,7.80
2022-08-05T10:52:58.588Z,8.88
2022-08-05T10:55:30.307Z,6.07
2022-08-05T10:58:11.256Z,6.75
2022-08-05T11:00:46.828Z,6.93
2022-08-05T11:03:25.629Z,5.00
2022-08-05T11:06:15.792Z,6.75
2022-08-05T11:09:31.877Z,5.82
2022-08-05T11:12:50.792Z,6.15
2022-08-05T11:16:00.276Z,4.30
2022-08-05T11:18:29.755Z,4.07
2022-08-05T11:20:58.953Z,4.90
2022-08-05T11:24:05.660Z,3.90
2022-08-05T11:26:33.442Z,4.50
2022-08-05T11:29:12.699Z,4.22
2022-08-05T11:31:57.453Z,4.90
2022-08-05T11:34:47.532Z,3.55
2022-08-05T11:38:26.664Z,3.80
2022-08-05T11:41:13.987Z,4.25
2022-08-05T11:44:05.874Z,4.30
2022-08-05T11:47:09.296Z,4.40
2022-08-05T11:49:28.254Z,5.38
2022-08-05T11:51:58.799Z,4.15
2022-08-05T11:54:33.989Z,4.32
2022-08-05T11:57:08.384Z,4.10
2022-08-05T11:59:53.213Z,6.20
2022-08-05T12:02:31.467Z,6.25
2022-08-05T12:05:06.982Z,4.10
2022-08-05T12:08:10.329Z,3.60
2022-08-05T12:10:43.110Z,4.68
2022-08-05T12:13:27.947Z,3.95
2022-08-05T12:16:14.449Z,4.07
2022-08-05T12:18:53.144Z,3.78
2022-08-05T12:21:26.979Z,3.70
2022-08-05T12:24:07.180Z,3.25
2022-08-05T12:26:38.940Z,4.20
2022-08-05T12:29:09.360Z,4.22
2022-08-05T12:31:50.108Z,3.83
2022-08-05T12:34:26.723Z,3.97
2022-08-05T12:36:58.546Z,3.92
2022-08-05T12:39:37.302Z,4.60
2022-08-05T12:42:18.097Z,4.40
2022-08-05T12:44:51.491Z,3.28
2022-08-05T12:47:30.565Z,4.35
2022-08-05T12:50:13.454Z,3.72
2022-08-05T12:52:43.336Z,3.80
2022-08-05T12:55:22.689Z,6.45
2022-08-05T12:58:48.881Z,3.97
2022-08-05T13:02:02.520Z,3.90
2022-08-05T13:03:41.474Z,3.85
2022-08-05T13:06:16.031Z,3.15
2022-08-05T13:08:52.129Z,3.28
2022-08-05T13:12:01.436Z,3.50
2022-08-05T13:14:24.680Z,3.13
2022-08-05T13:17:09.743Z,3.38
2022-08-05T13:19:40.475Z,3.35
2022-08-05T13:22:29.230Z,3.10
2022-08-05T13:25:05.643Z,4.97
2022-08-05T13:27:39.196Z,3.30
2022-08-05T13:30:32.752Z,4.28
2022-08-05T13:33:01.517Z,5.55
2022-08-05T13:35:43.282Z,3.90
2022-08-05T13:38:20.500Z,4.07
2022-08-05T13:41:01.457Z,3.78
2022-08-05T13:43:45.266Z,3.92
2022-08-05T13:46:37.662Z,4.45
2022-08-05T13:49:10.261Z,3.80
2022-08-05T13:51:41.787Z,4.28
2022-08-05T13:54:17.210Z,4.65
2022-08-05T13:56:55.066Z,4.47
2022-08-05T13:59:27.150Z,4.63
2022-08-05T14:01:59.553Z,4.88
2022-08-05T14:04:50.154Z,3.47
2022-08-05T14:07:26.072Z,3.85
2022-08-05T14:10:13.164Z,4.30
2022-08-05T14:12:48.423Z,5.40
2022-08-05T14:16:07.006Z,5.28
2022-08-05T14:18:14.923Z,3.70
2022-08-05T14:20:47.261Z,3.72
2022-08-05T14:23:23.347Z,4.60
2022-08-05T14:25:54.490Z,3.13
2022-08-05T14:28:28.590Z,3.22
2022-08-05T14:30:57.314Z,3.72
2022-08-05T14:33:25.847Z,3.22
2022-08-05T14:35:54.880Z,5.13
2022-08-05T14:38:32.267Z,3.22
2022-08-05T14:41:06.393Z,3.55
2022-08-05T14:43:59.451Z,4.28
2022-08-05T14:46:29.789Z,3.42
2022-08-05T14:49:04.190Z,2.40
2022-08-05T14:51:37.610Z,2.75
2022-08-05T14:54:28.350Z,2.28
2022-08-05T14:56:55.533Z,2.80
2022-08-05T14:59:25.367Z,4.22
2022-08-05T15:04:29.162Z,3.45
2022-08-05T15:06:57.758Z,3.60
2022-08-05T15:09:51.388Z,1.35
2022-08-05T15:12:16.800Z,2.60
2022-08-05T15:14:49.709Z,2.20
2022-08-05T15:17:47.339Z,2.50
2022-08-05T15:20:18.701Z,2.92
2022-08-05T15:22:52.158Z,3.38
2022-08-05T15:25:23.448Z,2.78
2022-08-05T15:28:14.294Z,2.25
2022-08-05T15:33:56.678Z,2.30
2022-08-05T15:36:05.457Z,1.95
2022-08-05T15:38:40.800Z,2.45
2022-08-05T15:41:21.539Z,2.58
2022-08-05T15:43:54.671Z,2.15
2022-08-05T15:46:25.303Z,2.30
2022-08-05T15:48:58.631Z,1.50
2022-08-05T15:52:12.645Z,3.85
2022-08-05T15:54:19.713Z,2.30
2022-08-05T15:56:48.059Z,2.70
2022-08-05T15:59:19.947Z,2.25
2022-08-05T16:04:25.637Z,1.85
2022-08-05T16:06:55.780Z,1.20
2022-08-05T16:09:24.976Z,2.05
2022-08-05T16:11:56.494Z,1.48
2022-08-05T16:14:24.903Z,0.88
2022-08-05T16:16:57.606Z,1.70
2022-08-05T16:20:05.657Z,2.80
2022-08-05T16:22:15.502Z,2.42
2022-08-05T16:24:51.183Z,2.33
2022-08-05T16:27:32.278Z,1.75
2022-08-05T16:30:25.748Z,2.35
2022-08-05T16:32:56.773Z,3.78
2022-08-05T16:35:28.531Z,1.98
2022-08-05T16:38:03.007Z,1.75
2022-08-05T16:40:47.917Z,1.35
2022-08-05T16:43:24.044Z,2.40
2022-08-05T16:46:05.897Z,1.73
2022-08-05T16:48:39.118Z,1.25
2022-08-05T16:51:09.452Z,1.45
2022-08-05T16:54:02.450Z,2.33
2022-08-05T16:56:30.501Z,2.00
2022-08-05T16:59:03.127Z,2.10
2022-08-05T17:01:54.024Z,1.52
2022-08-05T17:04:27.984Z,2.92
2022-08-05T17:07:01.253Z,1.35
2022-08-05T17:09:38.785Z,1.42
2022-08-05T17:12:22.627Z,1.45
2022-08-05T17:15:08.491Z,1.58
2022-08-05T17:17:41.953Z,1.63
2022-08-05T17:20:14.794Z,1.87
2022-08-05T17:22:43.335Z,1.50
2022-08-05T17:25:33.945Z,0.98
2022-08-05T17:28:01.786Z,2.35
2022-08-05T17:30:30.221Z,1.67
2022-08-05T17:32:58.698Z,1.73
2022-08-05T17:35:32.556Z,2.38
2022-08-05T17:38:17.454Z,2.05
2022-08-05T17:40:46.036Z,2.13
2022-08-05T17:43:16.006Z,1.58
2022-08-05T17:45:47.822Z,1.40
2022-08-05T17:48:21.133Z,3.40
2022-08-05T17:50:54.588Z,1.90
2022-08-05T17:53:25.764Z,1.83
2022-08-05T17:55:59.750Z,2.67
2022-08-05T17:58:32.269Z,1.50
2022-08-05T18:01:01.220Z,1.52
2022-08-05T18:03:59.641Z,1.35
2022-08-05T18:06:19.805Z,1.55
2022-08-05T18:08:57.967Z,0.95
2022-08-05T18:11:33.555Z,2.40
2022-08-05T18:14:06.600Z,1.73
2022-08-05T18:16:51.080Z,1.52
2022-08-05T18:19:22.708Z,1.98
2022-08-05T18:22:09.010Z,1.85
2022-08-05T18:24:40.200Z,1.52
2022-08-05T18:27:08.806Z,1.40
2022-08-05T18:29:51.992Z,1.27
2022-08-05T18:32:28.075Z,1.98
2022-08-05T18:34:58.703Z,1.02
2022-08-05T18:37:34.353Z,1.55
2022-08-05T18:40:34.233Z,2.33
2022-08-05T18:42:58.617Z,1.65
2022-08-05T18:45:40.946Z,2.50
2022-08-05T18:48:11.215Z,1.60
2022-08-05T18:51:01.754Z,1.20
2022-08-05T18:53:50.466Z,1.83
2022-08-05T18:56:21.897Z,1.30
2022-08-05T18:58:54.999Z,1.55
2022-08-05T19:01:47.413Z,1.70
2022-08-05T19:04:24.074Z,1.83
2022-08-05T19:06:53.713Z,1.30
2022-08-05T19:09:23.600Z,2.22
2022-08-05T19:12:01.062Z,1.67
2022-08-05T19:14:53.378Z,2.05
2022-08-05T19:17:19.321Z,1.05
2022-08-05T19:19:48.660Z,1.42
2022-08-05T19:22:17.945Z,0.73
2022-08-05T19:24:54.353Z,1.77
2022-08-05T19:27:27.930Z,1.38
2022-08-05T19:29:58.982Z,1.70
2022-08-05T19:32:27.814Z,1.58
2022-08-05T19:34:56.725Z,1.77
2022-08-05T19:37:29.808Z,1.38
2022-08-05T19:40:09.989Z,1.65
2022-08-05T19:42:39.128Z,1.23
2022-08-05T19:45:08.871Z,1.95
2022-08-05T19:47:43.016Z,1.38
2022-08-05T19:50:12.694Z,1.00
2022-08-05T19:52:41.368Z,1.33
2022-08-05T19:56:15.347Z,0.95
2022-08-05T19:58:19.781Z,1.80
2022-08-05T20:00:50.560Z,1.25
2022-08-05T20:03:20.661Z,1.95
2022-08-05T20:05:51.141Z,2.05
2022-08-05T20:08:24.577Z,1.38
2022-08-05T20:10:55.150Z,1.98
2022-08-05T20:13:30.007Z,1.58
2022-08-05T20:15:59.576Z,1.55
2022-08-05T20:18:33.967Z,1.67
2022-08-05T20:21:05.137Z,1.90
2022-08-05T20:23:39.960Z,1.73
2022-08-05T20:26:22.008Z,1.08
2022-08-05T20:28:54.037Z,1.02
2022-08-05T20:31:36.805Z,2.25
2022-08-05T20:34:06.073Z,1.73
2022-08-05T20:36:37.038Z,1.20
2022-08-05T20:39:07.707Z,1.35
2022-08-05T20:41:43.858Z,1.15
2022-08-05T20:44:19.161Z,1.55
2022-08-05T20:46:59.091Z,2.08
2022-08-05T20:49:28.216Z,1.33
2022-08-05T20:51:58.068Z,2.50
2022-08-05T20:54:43.239Z,1.60
2022-08-05T20:57:42.095Z,1.70
2022-08-05T21:00:34.897Z,2.33
2022-08-05T21:03:07.182Z,1.73
2022-08-05T21:05:47.620Z,1.55
2022-08-05T21:08:32.891Z,1.35
2022-08-05T21:11:11.910Z,1.98
2022-08-05T21:13:47.820Z,2.08
2022-08-05T21:16:30.219Z,1.23
2022-08-05T21:19:01.134Z,1.58
2022-08-05T21:21:39.019Z,1.95
2022-08-05T21:24:15.704Z,1.38
2022-08-05T21:26:53.543Z,1.65
2022-08-05T21:29:31.447Z,2.13
2022-08-05T21:32:02.164Z,1.17
2022-08-05T21:34:31.671Z,1.40
2022-08-05T21:37:01.667Z,2.80
2022-08-05T21:39:30.474Z,1.70
2022-08-05T21:42:03.052Z,1.83
2022-08-05T21:44:33.376Z,1.88
2022-08-05T21:47:02.017Z,1.52
2022-08-05T21:49:58.932Z,1.88
2022-08-05T21:52:27.451Z,2.08
2022-08-05T21:54:57.560Z,2.58
2022-08-05T21:57:35.021Z,1.63
2022-08-05T22:00:11.241Z,1.92
2022-08-05T22:02:43.966Z,1.42
2022-08-05T22:05:14.223Z,3.03
2022-08-05T22:07:59.567Z,2.83
2022-08-05T22:10:31.012Z,2.00
2022-08-05T22:13:09.356Z,2.58
2022-08-05T22:16:01.367Z,1.90
2022-08-05T22:18:36.371Z,2.08
2022-08-05T22:21:17.894Z,1.27
2022-08-05T22:24:08.996Z,2.03
2022-08-05T22:26:59.865Z,1.20
2022-08-05T22:29:30.560Z,2.28
2022-08-05T22:32:03.448Z,3.22
2022-08-05T22:34:32.557Z,3.17
2022-08-05T22:37:03.858Z,1.95
2022-08-05T22:39:34.493Z,1.63
2022-08-05T22:42:12.448Z,2.05
2022-08-05T22:44:48.424Z,2.20
2022-08-05T22:47:29.828Z,2.20
2022-08-05T22:50:19.630Z,2.13
2022-08-05T22:52:49.639Z,1.75
2022-08-05T22:55:21.380Z,2.35
2022-08-05T22:57:50.780Z,2.15
2022-08-05T23:00:21.162Z,1.80
2022-08-05T23:02:53.216Z,2.22
2022-08-05T23:05:23.437Z,3.50
2022-08-05T23:07:53.287Z,1.83
2022-08-05T23:10:23.995Z,2.33
2022-08-05T23:12:55.610Z,2.50
2022-08-05T23:15:26.993Z,2.38
2022-08-05T23:18:03.310Z,2.03
2022-08-05T23:20:37.509Z,1.50
2022-08-05T23:23:08.657Z,2.45
2022-08-05T23:25:51.688Z,1.92
2022-08-05T23:28:27.790Z,1.80
2022-08-05T23:31:16.247Z,2.17
2022-08-05T23:34:04.361Z,1.77
2022-08-05T23:36:38.615Z,2.33
2022-08-05T23:39:17.314Z,2.83
2022-08-05T23:42:01.183Z,1.75
2022-08-05T23:44:31.313Z,2.50
2022-08-05T23:47:02.428Z,1.90
2022-08-05T23:49:35.602Z,2.30
2022-08-05T23:52:25.205Z,2.90
2022-08-05T23:54:55.183Z,2.30
2022-08-05T23:57:24.464Z,2.40
